Time;durP1;ratioP1;P1;durP2;ratioP2;P2;SDS_P1;SDS_P2;PMS_P1;PMS_P2;Temp;Humidity;BMP_temperature;BMP_pressure;BME280_temperature;BME280_humidity;BME280_pressure;Samples;Min_cycle;Max_cycle;Signal;HPM_P1;HPM_P2
2021/10/18 00:01:32;;;;;;;8.93;3.60;;;15.40;80.90;;;;;;4223035;27;20494;-60
2021/10/18 00:03:54;;;;;;;6.75;3.80;;;15.30;81.20;;;;;;4209601;28;20486;-60
2021/10/18 00:06:17;;;;;;;5.13;3.65;;;15.40;80.80;;;;;;4210166;28;20559;-60
2021/10/18 00:08:39;;;;;;;4.45;3.60;;;15.30;80.80;;;;;;4209299;28;20056;-60
2021/10/18 00:11:01;;;;;;;4.85;3.88;;;15.30;81.30;;;;;;4210089;28;20044;-60
2021/10/18 00:13:43;;;;;;;4.75;3.08;;;15.30;81.40;;;;;;4192938;28;20090;-60
2021/10/18 00:16:06;;;;;;;5.03;3.63;;;15.30;81.50;;;;;;4205903;28;20082;-60
2021/10/18 00:18:29;;;;;;;5.13;3.13;;;15.30;81.50;;;;;;4209669;28;20409;-60
2021/10/18 00:20:51;;;;;;;6.22;4.00;;;15.30;81.40;;;;;;4210053;28;20075;-60
2021/10/18 00:23:14;;;;;;;4.90;3.65;;;15.30;81.50;;;;;;4196965;28;20044;-60
2021/10/18 00:25:36;;;;;;;3.95;3.53;;;15.30;81.40;;;;;;4209609;28;20414;-60
2021/10/18 00:27:58;;;;;;;6.32;4.03;;;15.30;81.40;;;;;;4209557;28;20137;-60
2021/10/18 00:30:20;;;;;;;5.40;4.05;;;15.30;81.40;;;;;;4221565;27;20577;-61
2021/10/18 00:32:42;;;;;;;4.60;3.85;;;15.30;81.70;;;;;;4226390;27;20520;-60
2021/10/18 00:35:07;;;;;;;6.40;3.95;;;15.30;81.30;;;;;;4220584;28;20043;-60
2021/10/18 00:37:30;;;;;;;4.20;3.45;;;15.30;81.30;;;;;;4209271;28;20051;-60
2021/10/18 00:39:53;;;;;;;3.95;3.35;;;15.30;81.50;;;;;;4209239;28;20052;-60
2021/10/18 00:42:15;;;;;;;5.25;3.45;;;15.30;82.40;;;;;;4209789;28;20577;-60
2021/10/18 00:44:37;;;;;;;6.78;3.90;;;15.30;82.00;;;;;;4209355;28;20082;-59
2021/10/18 00:47:01;;;;;;;5.85;4.13;;;15.30;81.80;;;;;;4209388;28;20070;-60
2021/10/18 00:49:23;;;;;;;5.45;3.53;;;15.30;81.70;;;;;;4208896;28;20127;-60
2021/10/18 00:51:47;;;;;;;5.55;3.95;;;15.30;81.70;;;;;;4209434;28;20098;-60
2021/10/18 00:54:09;;;;;;;4.40;3.65;;;15.30;81.70;;;;;;4209187;28;20161;-60
2021/10/18 00:56:31;;;;;;;3.83;3.53;;;15.30;81.50;;;;;;4209153;28;20060;-60
2021/10/18 00:58:55;;;;;;;4.10;3.33;;;15.30;81.60;;;;;;4209148;28;20093;-60
2021/10/18 01:01:17;;;;;;;4.75;4.28;;;15.30;81.70;;;;;;4208967;28;20055;-60
2021/10/18 01:03:40;;;;;;;5.60;3.50;;;15.30;81.90;;;;;;4196632;28;20054;-60
2021/10/18 01:06:02;;;;;;;3.80;3.22;;;15.30;82.40;;;;;;4225510;27;20048;-60
2021/10/18 01:08:26;;;;;;;4.45;3.13;;;15.30;82.60;;;;;;4226058;27;20043;-59
2021/10/18 01:10:47;;;;;;;4.45;4.05;;;15.30;82.30;;;;;;4225522;27;20051;-60
2021/10/18 01:13:09;;;;;;;4.45;3.95;;;15.30;82.40;;;;;;4225741;27;20039;-60
2021/10/18 01:15:31;;;;;;;4.32;3.92;;;15.30;82.40;;;;;;4222396;27;20071;-60
2021/10/18 01:17:54;;;;;;;4.85;4.25;;;15.30;82.70;;;;;;4208644;28;20055;-60
2021/10/18 01:20:27;;;;;;;4.40;3.67;;;15.30;82.70;;;;;;4192919;28;20491;-60
2021/10/18 01:22:50;;;;;;;3.95;3.65;;;15.30;82.30;;;;;;4194454;28;20051;-60
2021/10/18 01:25:12;;;;;;;3.92;3.60;;;15.30;82.50;;;;;;4192287;28;20461;-59
2021/10/18 01:27:34;;;;;;;4.40;4.00;;;15.30;82.90;;;;;;4191347;28;20048;-60
2021/10/18 01:29:56;;;;;;;4.55;3.85;;;15.30;83.10;;;;;;4191571;28;20048;-60
2021/10/18 01:32:18;;;;;;;4.13;3.75;;;15.30;83.40;;;;;;4191730;28;20499;-60
2021/10/18 01:34:40;;;;;;;4.18;3.78;;;15.30;83.40;;;;;;4191626;28;20473;-60
2021/10/18 01:37:05;;;;;;;4.90;4.00;;;15.30;83.30;;;;;;4175554;28;20057;-60
2021/10/18 01:39:28;;;;;;;4.03;3.70;;;15.30;83.20;;;;;;4175358;28;20041;-60
2021/10/18 01:41:50;;;;;;;6.25;4.72;;;15.30;83.50;;;;;;4195338;28;20048;-60
2021/10/18 01:44:12;;;;;;;4.55;3.78;;;15.30;83.90;;;;;;4175381;28;20094;-60
2021/10/18 01:46:34;;;;;;;4.53;3.75;;;15.30;83.60;;;;;;4175517;28;20083;-60
2021/10/18 01:48:57;;;;;;;3.83;3.53;;;15.30;83.80;;;;;;4174971;28;20103;-60
2021/10/18 01:51:19;;;;;;;5.07;3.92;;;15.30;84.00;;;;;;4175447;28;20055;-60
2021/10/18 01:53:42;;;;;;;4.90;4.50;;;15.30;83.80;;;;;;4183743;28;20055;-61
2021/10/18 01:56:05;;;;;;;4.88;4.45;;;15.30;83.70;;;;;;4191745;28;20502;-60
2021/10/18 01:58:31;;;;;;;4.78;4.32;;;15.30;84.00;;;;;;4191619;28;20059;-60
2021/10/18 02:00:53;;;;;;;5.95;3.88;;;15.30;83.80;;;;;;4215962;27;20502;-59
2021/10/18 02:03:15;;;;;;;7.90;4.63;;;15.20;83.80;;;;;;4225137;27;20047;-60
2021/10/18 02:05:38;;;;;;;5.38;4.88;;;15.20;83.90;;;;;;4225107;27;20131;-60
2021/10/18 02:08:00;;;;;;;5.72;5.13;;;15.20;83.80;;;;;;4208569;28;20044;-60
2021/10/18 02:10:23;;;;;;;7.85;4.65;;;15.30;83.90;;;;;;4208455;28;20052;-60
2021/10/18 02:12:45;;;;;;;6.78;5.00;;;15.30;83.70;;;;;;4208215;28;20154;-60
2021/10/18 02:15:08;;;;;;;4.30;4.00;;;15.30;83.70;;;;;;4208079;28;20093;-60
2021/10/18 02:17:30;;;;;;;5.40;4.85;;;15.20;83.80;;;;;;4208207;28;20413;-60
2021/10/18 02:19:52;;;;;;;5.07;4.60;;;15.20;83.80;;;;;;4209967;27;20728;-60
2021/10/18 02:22:14;;;;;;;5.78;4.75;;;15.20;83.80;;;;;;4224624;27;20417;-60
2021/10/18 02:24:36;;;;;;;6.35;5.13;;;15.20;83.50;;;;;;4191368;28;20061;-60
2021/10/18 02:27:00;;;;;;;5.07;4.68;;;15.20;83.90;;;;;;4191281;28;20573;-60
2021/10/18 02:29:22;;;;;;;5.30;4.68;;;15.20;83.60;;;;;;4191618;28;20071;-60
2021/10/18 02:31:44;;;;;;;6.10;4.65;;;15.20;83.80;;;;;;4191119;28;20052;-60
2021/10/18 02:34:06;;;;;;;5.97;5.38;;;15.20;83.20;;;;;;4200864;28;20063;-60
2021/10/18 02:36:30;;;;;;;5.70;4.50;;;15.20;83.40;;;;;;4208144;28;20063;-61
2021/10/18 02:38:52;;;;;;;5.40;4.82;;;15.20;83.70;;;;;;4208947;28;20105;-60
2021/10/18 02:41:15;;;;;;;7.53;4.80;;;15.20;84.00;;;;;;4194680;28;20053;-60
2021/10/18 02:43:39;;;;;;;6.43;5.15;;;15.20;84.00;;;;;;4194517;28;20522;-61
2021/10/18 02:46:01;;;;;;;6.88;5.05;;;15.20;84.10;;;;;;4194120;28;20080;-60
2021/10/18 02:48:23;;;;;;;6.15;5.55;;;15.20;84.20;;;;;;4210440;28;20044;-61
2021/10/18 02:50:45;;;;;;;6.88;5.28;;;15.20;84.10;;;;;;4194429;28;20049;-61
2021/10/18 02:53:07;;;;;;;5.63;5.13;;;15.20;84.30;;;;;;4194373;28;20064;-62
2021/10/18 02:55:29;;;;;;;6.30;5.30;;;15.20;84.20;;;;;;4194373;28;20177;-61
2021/10/18 02:57:51;;;;;;;5.85;5.30;;;15.20;84.20;;;;;;4194317;28;20040;-61
2021/10/18 03:00:15;;;;;;;5.32;4.82;;;15.20;84.10;;;;;;4194007;28;20048;-61
2021/10/18 03:02:38;;;;;;;6.25;4.97;;;15.20;84.10;;;;;;4227849;27;20051;-61
2021/10/18 03:04:59;;;;;;;6.57;5.53;;;15.20;84.20;;;;;;4227779;27;20391;-61
2021/10/18 03:07:22;;;;;;;7.50;5.30;;;15.20;84.40;;;;;;4227996;27;20105;-62
2021/10/18 03:09:44;;;;;;;5.95;5.05;;;15.20;84.30;;;;;;4217983;27;20051;-61
2021/10/18 03:12:07;;;;;;;6.85;5.47;;;15.20;84.20;;;;;;4210248;28;20044;-61
2021/10/18 03:14:28;;;;;;;5.95;5.20;;;15.20;85.20;;;;;;4210812;28;20097;-60
2021/10/18 03:16:52;;;;;;;11.80;5.32;;;15.20;84.50;;;;;;4210873;28;20078;-61
2021/10/18 03:19:14;;;;;;;6.63;5.43;;;15.20;84.30;;;;;;4210501;28;20044;-61
2021/10/18 03:21:36;;;;;;;6.40;5.75;;;15.20;84.20;;;;;;4210602;28;20060;-61
2021/10/18 03:23:58;;;;;;;7.05;5.60;;;15.20;84.20;;;;;;4210339;28;20468;-61
2021/10/18 03:26:20;;;;;;;6.93;5.53;;;15.20;84.30;;;;;;4210901;28;20098;-61
2021/10/18 03:28:43;;;;;;;6.82;4.95;;;15.20;84.10;;;;;;4210610;28;20512;-61
2021/10/18 03:31:05;;;;;;;5.93;5.40;;;15.20;84.30;;;;;;4210565;28;20048;-61
2021/10/18 03:33:30;;;;;;;6.60;6.00;;;15.20;84.10;;;;;;4209952;28;20116;-61
2021/10/18 03:35:52;;;;;;;5.97;5.25;;;15.20;84.00;;;;;;4209456;28;20592;-60
2021/10/18 03:38:14;;;;;;;6.30;5.75;;;15.20;84.10;;;;;;4209434;28;20161;-60
2021/10/18 03:40:36;;;;;;;6.75;5.65;;;15.20;84.10;;;;;;4224680;27;20051;-61
2021/10/18 03:43:00;;;;;;;6.28;5.78;;;15.20;84.10;;;;;;4226910;27;20047;-60
2021/10/18 03:45:22;;;;;;;7.18;5.97;;;15.20;83.90;;;;;;4218795;27;20062;-60
2021/10/18 03:47:44;;;;;;;10.20;6.80;;;15.10;84.10;;;;;;4210105;28;20047;-60
2021/10/18 03:50:09;;;;;;;6.55;5.82;;;15.20;84.20;;;;;;4209582;28;20047;-60
2021/10/18 03:52:31;;;;;;;5.85;5.35;;;15.20;84.10;;;;;;4209917;28;20566;-61
2021/10/18 03:54:54;;;;;;;6.97;6.13;;;15.20;84.00;;;;;;4210012;28;20048;-61
2021/10/18 03:57:16;;;;;;;7.57;6.10;;;15.10;84.00;;;;;;4209923;28;20105;-61
2021/10/18 03:59:39;;;;;;;8.80;6.25;;;15.10;84.00;;;;;;4209683;28;20063;-61
2021/10/18 04:02:04;;;;;;;12.10;6.32;;;15.10;83.90;;;;;;4208531;28;20044;-61
2021/10/18 04:04:26;;;;;;;6.95;6.25;;;15.20;84.20;;;;;;4210075;28;20055;-61
2021/10/18 04:06:49;;;;;;;8.63;6.28;;;15.10;83.80;;;;;;4210246;28;20413;-60
2021/10/18 04:09:12;;;;;;;7.72;6.53;;;15.10;83.90;;;;;;4209517;28;20390;-61
2021/10/18 04:11:38;;;;;;;8.80;6.22;;;15.20;84.10;;;;;;4209888;28;20056;-61
2021/10/18 04:14:00;;;;;;;7.05;6.35;;;15.10;84.10;;;;;;4208139;28;20490;-62
2021/10/18 04:16:22;;;;;;;6.47;5.55;;;15.10;84.10;;;;;;4193105;28;20102;-62
2021/10/18 04:18:44;;;;;;;6.78;6.00;;;15.10;84.20;;;;;;4200201;28;20056;-60
2021/10/18 04:21:06;;;;;;;6.32;5.78;;;15.10;84.30;;;;;;4209942;28;20040;-61
2021/10/18 04:23:30;;;;;;;7.45;6.03;;;15.10;84.40;;;;;;4209802;28;20341;-61
2021/10/18 04:25:51;;;;;;;7.70;6.45;;;15.10;84.20;;;;;;4209834;28;20055;-61
2021/10/18 04:28:14;;;;;;;8.00;6.65;;;15.10;84.40;;;;;;4193040;28;20482;-61
2021/10/18 04:30:36;;;;;;;7.50;6.50;;;15.10;84.60;;;;;;4193121;28;20052;-62
2021/10/18 04:32:58;;;;;;;6.90;6.22;;;15.10;84.40;;;;;;4192834;28;20053;-62
2021/10/18 04:35:21;;;;;;;7.53;6.70;;;15.10;84.10;;;;;;4192571;28;20072;-61
2021/10/18 04:37:43;;;;;;;9.02;6.35;;;15.10;84.30;;;;;;4193584;28;20071;-62
2021/10/18 04:40:08;;;;;;;12.70;6.85;;;15.10;84.40;;;;;;4204170;27;20059;-61
2021/10/18 04:42:29;;;;;;;7.80;6.35;;;15.10;84.20;;;;;;4207770;28;20502;-62
2021/10/18 04:44:51;;;;;;;7.18;6.18;;;15.10;84.40;;;;;;4209569;28;20044;-61
2021/10/18 04:47:13;;;;;;;7.10;6.03;;;15.10;84.30;;;;;;4209353;28;20501;-61
2021/10/18 04:49:35;;;;;;;6.57;5.97;;;15.00;84.40;;;;;;4209172;28;20113;-61
2021/10/18 04:51:58;;;;;;;7.70;6.90;;;15.00;84.80;;;;;;4209409;28;20079;-61
2021/10/18 04:54:20;;;;;;;6.57;5.82;;;15.00;84.50;;;;;;4208981;28;20040;-61
2021/10/18 04:56:43;;;;;;;8.75;6.60;;;15.00;84.60;;;;;;4209036;28;20122;-61
2021/10/18 04:59:06;;;;;;;8.30;6.25;;;15.00;84.30;;;;;;4208957;28;20047;-61
2021/10/18 05:01:27;;;;;;;8.07;6.20;;;15.00;84.60;;;;;;4208051;28;20048;-61
2021/10/18 05:03:50;;;;;;;7.82;5.88;;;15.00;84.60;;;;;;4208872;28;20101;-61
2021/10/18 05:06:12;;;;;;;6.78;6.13;;;15.00;84.70;;;;;;4209089;28;20039;-61
2021/10/18 05:08:34;;;;;;;8.77;6.78;;;15.00;84.60;;;;;;4207768;28;20056;-61
2021/10/18 05:10:56;;;;;;;9.68;7.10;;;15.00;84.80;;;;;;4208005;28;20039;-61
2021/10/18 05:13:19;;;;;;;8.70;7.03;;;15.00;84.70;;;;;;4208481;28;20473;-61
2021/10/18 05:15:42;;;;;;;7.65;6.68;;;15.00;84.60;;;;;;4208874;28;20112;-63
2021/10/18 05:18:05;;;;;;;7.32;6.63;;;15.00;84.60;;;;;;4208739;28;20559;-60
2021/10/18 05:20:28;;;;;;;9.13;7.18;;;15.00;84.30;;;;;;4208469;28;20086;-59
2021/10/18 05:22:50;;;;;;;8.02;7.20;;;15.00;84.20;;;;;;4208884;28;20194;-61
2021/10/18 05:25:12;;;;;;;8.60;7.25;;;15.00;84.30;;;;;;4208480;28;20055;-61
2021/10/18 05:27:35;;;;;;;7.43;6.72;;;15.00;85.30;;;;;;4208413;28;20052;-61
2021/10/18 05:29:58;;;;;;;8.55;7.53;;;15.00;84.40;;;;;;4219589;28;20409;-61
2021/10/18 05:32:20;;;;;;;9.75;6.78;;;15.00;84.30;;;;;;4225441;28;20051;-61
2021/10/18 05:34:42;;;;;;;7.80;7.10;;;15.00;84.50;;;;;;4225157;28;20083;-61
2021/10/18 05:37:04;;;;;;;6.75;6.10;;;15.00;84.60;;;;;;4222887;27;20047;-61
2021/10/18 05:39:26;;;;;;;7.47;6.38;;;15.00;84.80;;;;;;4207023;28;20048;-62
2021/10/18 05:41:48;;;;;;;8.82;6.97;;;15.00;84.90;;;;;;4207165;28;20563;-62
2021/10/18 05:44:11;;;;;;;8.15;6.22;;;15.00;84.90;;;;;;4208425;28;20048;-62
2021/10/18 05:46:34;;;;;;;10.18;7.07;;;15.00;85.00;;;;;;4220193;27;20144;-65
2021/10/18 05:48:57;;;;;;;8.45;6.72;;;15.00;85.10;;;;;;4206911;28;20101;-61
2021/10/18 05:51:19;;;;;;;9.73;8.15;;;15.00;86.40;;;;;;4207919;28;20139;-61
2021/10/18 05:53:41;;;;;;;9.90;7.68;;;15.00;86.70;;;;;;4208288;28;20542;-61
2021/10/18 05:56:04;;;;;;;8.05;6.95;;;15.00;86.30;;;;;;4217512;27;20058;-61
2021/10/18 05:58:26;;;;;;;9.30;7.72;;;15.00;86.30;;;;;;4202162;28;20131;-61
2021/10/18 06:00:48;;;;;;;7.28;6.60;;;15.00;86.00;;;;;;4206587;28;20117;-61
2021/10/18 06:03:13;;;;;;;8.05;7.25;;;15.00;85.90;;;;;;4206764;28;20055;-61
2021/10/18 06:05:42;;;;;;;10.25;7.10;;;15.00;85.40;;;;;;4209579;27;20056;-62
2021/10/18 06:08:06;;;;;;;9.38;7.13;;;15.00;85.30;;;;;;4205462;27;20048;-62
2021/10/18 06:10:28;;;;;;;9.30;7.70;;;15.00;85.30;;;;;;4190132;28;20037;-63
2021/10/18 06:12:50;;;;;;;12.25;8.25;;;15.00;85.20;;;;;;4194068;28;20498;-62
2021/10/18 06:15:12;;;;;;;9.70;7.82;;;15.00;86.10;;;;;;4207770;28;20386;-61
2021/10/18 06:17:35;;;;;;;8.90;7.90;;;15.00;85.30;;;;;;4208177;28;20057;-62
2021/10/18 06:19:59;;;;;;;10.98;8.50;;;15.00;85.00;;;;;;4207676;28;20532;-62
2021/10/18 06:22:21;;;;;;;9.30;8.27;;;15.00;85.00;;;;;;4207971;28;20044;-61
2021/10/18 06:24:43;;;;;;;11.13;8.27;;;15.00;85.10;;;;;;4207798;28;20532;-60
2021/10/18 06:27:05;;;;;;;8.00;7.18;;;15.00;85.10;;;;;;4208155;28;20048;-60
2021/10/18 06:29:27;;;;;;;9.57;8.30;;;15.00;85.10;;;;;;4191383;28;20479;-60
2021/10/18 06:31:50;;;;;;;8.38;7.43;;;15.00;85.20;;;;;;4174427;28;20124;-60
2021/10/18 06:34:12;;;;;;;11.05;8.32;;;15.00;85.20;;;;;;4191153;27;20131;-61
2021/10/18 06:36:35;;;;;;;9.05;7.90;;;14.90;84.80;;;;;;4207665;28;20052;-61
2021/10/18 06:38:57;;;;;;;8.95;8.05;;;15.00;84.90;;;;;;4207805;28;20051;-61
2021/10/18 06:41:19;;;;;;;9.35;8.45;;;15.00;85.00;;;;;;4192461;28;20036;-62
2021/10/18 06:43:42;;;;;;;11.88;8.88;;;15.00;85.10;;;;;;4191224;28;20056;-60
2021/10/18 06:46:04;;;;;;;9.25;8.25;;;15.00;84.90;;;;;;4191102;28;20479;-60
2021/10/18 06:48:26;;;;;;;9.65;8.57;;;14.90;84.90;;;;;;4189566;28;20052;-61
2021/10/18 06:50:49;;;;;;;9.93;8.60;;;14.90;84.80;;;;;;4191032;28;20418;-60
2021/10/18 06:53:15;;;;;;;9.43;8.30;;;14.90;84.70;;;;;;4190533;28;20072;-60
2021/10/18 06:55:37;;;;;;;13.52;9.00;;;14.90;84.70;;;;;;4212102;27;20482;-60
2021/10/18 06:57:59;;;;;;;10.57;9.40;;;15.00;84.60;;;;;;4224651;27;20043;-59
2021/10/18 07:00:22;;;;;;;14.38;9.68;;;15.10;84.30;;;;;;4224671;27;20075;-60
2021/10/18 07:02:44;;;;;;;9.13;8.30;;;15.10;83.90;;;;;;4222782;27;20646;-59
2021/10/18 07:05:06;;;;;;;10.98;9.02;;;15.20;83.70;;;;;;4213916;27;20044;-60
2021/10/18 07:07:28;;;;;;;10.60;9.55;;;15.30;83.40;;;;;;4206842;28;20106;-60
2021/10/18 07:09:52;;;;;;;12.02;8.65;;;15.30;83.00;;;;;;4207435;28;20048;-60
2021/10/18 07:12:13;;;;;;;8.98;7.90;;;15.30;82.80;;;;;;4207506;28;20044;-60
2021/10/18 07:14:35;;;;;;;11.88;9.32;;;15.30;82.80;;;;;;4190777;28;20495;-60
2021/10/18 07:16:58;;;;;;;9.40;8.50;;;15.40;83.50;;;;;;4209014;27;20130;-59
2021/10/18 07:19:20;;;;;;;11.32;9.52;;;15.30;82.50;;;;;;4224181;27;20043;-60
2021/10/18 07:21:42;;;;;;;11.15;8.73;;;15.40;82.40;;;;;;4224667;27;20052;-59
2021/10/18 07:24:05;;;;;;;11.82;9.13;;;15.40;83.30;;;;;;4224672;27;20427;-59
2021/10/18 07:26:29;;;;;;;11.82;8.85;;;15.50;82.30;;;;;;4209483;28;20040;-59
2021/10/18 07:28:55;;;;;;;9.32;8.43;;;15.60;81.80;;;;;;4210458;28;20047;-60
2021/10/18 07:31:18;;;;;;;9.05;8.15;;;15.80;80.90;;;;;;4210470;28;20048;-60
2021/10/18 07:33:40;;;;;;;11.35;9.45;;;16.00;80.20;;;;;;4210482;28;20055;-60
2021/10/18 07:36:08;;;;;;;10.30;9.23;;;16.10;79.40;;;;;;4210376;28;20527;-59
2021/10/18 07:38:29;;;;;;;10.52;8.82;;;16.30;78.80;;;;;;4210133;28;20075;-59
2021/10/18 07:40:52;;;;;;;9.15;8.35;;;16.40;78.30;;;;;;4210506;28;20055;-60
2021/10/18 07:43:15;;;;;;;11.35;8.23;;;16.50;77.60;;;;;;4210257;28;20448;-60
2021/10/18 07:45:38;;;;;;;10.32;9.32;;;16.60;77.00;;;;;;4210520;28;20051;-60
2021/10/18 07:48:00;;;;;;;9.48;8.48;;;16.60;76.50;;;;;;4210285;28;20567;-60
2021/10/18 07:50:23;;;;;;;9.27;7.80;;;16.70;76.30;;;;;;4209779;28;20052;-58
2021/10/18 07:52:46;;;;;;;9.23;8.32;;;16.70;76.20;;;;;;4209716;28;20502;-60
2021/10/18 07:55:14;;;;;;;9.45;8.05;;;16.70;76.10;;;;;;4210196;28;20170;-60
2021/10/18 07:57:36;;;;;;;8.95;8.05;;;16.70;76.20;;;;;;4193007;28;20056;-59
2021/10/18 07:59:59;;;;;;;9.45;8.07;;;16.70;76.00;;;;;;4206150;28;20109;-61
2021/10/18 08:02:22;;;;;;;10.48;8.75;;;16.70;76.00;;;;;;4209295;28;20056;-62
2021/10/18 08:04:44;;;;;;;8.63;7.75;;;16.70;76.10;;;;;;4209592;28;20059;-60
2021/10/18 08:07:06;;;;;;;8.75;7.95;;;16.60;76.10;;;;;;4219530;27;20101;-60
2021/10/18 08:09:28;;;;;;;9.55;8.68;;;16.60;76.40;;;;;;4209337;28;20109;-60
2021/10/18 08:11:50;;;;;;;9.13;8.23;;;16.50;76.60;;;;;;4210161;28;20052;-61
2021/10/18 08:14:12;;;;;;;9.75;8.73;;;16.50;76.70;;;;;;4213389;27;20047;-60
2021/10/18 08:16:36;;;;;;;9.90;8.98;;;16.50;76.90;;;;;;4194375;28;20083;-59
2021/10/18 08:18:58;;;;;;;9.88;8.63;;;16.40;77.00;;;;;;4192918;28;20056;-59
2021/10/18 08:21:22;;;;;;;9.73;8.55;;;16.40;77.10;;;;;;4192842;28;20105;-59
2021/10/18 08:23:44;;;;;;;9.73;8.80;;;16.30;77.10;;;;;;4192895;28;20105;-59
2021/10/18 08:26:07;;;;;;;10.70;8.45;;;16.30;77.30;;;;;;4209374;28;20048;-59
2021/10/18 08:28:29;;;;;;;10.52;9.38;;;16.20;77.30;;;;;;4192751;28;20059;-60
2021/10/18 08:31:05;;;;;;;9.65;8.75;;;16.20;77.50;;;;;;4206285;28;20054;-59
2021/10/18 08:33:28;;;;;;;10.98;9.80;;;16.10;77.50;;;;;;4196046;28;20444;-59
2021/10/18 08:35:51;;;;;;;12.93;10.07;;;16.10;77.60;;;;;;4209075;28;20044;-59
2021/10/18 08:38:18;;;;;;;12.45;8.95;;;16.10;77.80;;;;;;4207263;28;20118;-59
2021/10/18 08:40:44;;;;;;;10.05;9.15;;;16.00;77.90;;;;;;4207380;28;20059;-60
2021/10/18 08:43:08;;;;;;;11.15;10.05;;;16.00;78.00;;;;;;4202485;28;20040;-59
2021/10/18 08:45:34;;;;;;;10.65;9.57;;;16.00;78.00;;;;;;4208760;28;20071;-60
2021/10/18 08:47:56;;;;;;;12.13;10.23;;;15.90;78.10;;;;;;4209518;28;20559;-59
2021/10/18 08:50:21;;;;;;;10.80;9.70;;;16.00;78.40;;;;;;4208741;28;20043;-59
2021/10/18 08:52:43;;;;;;;12.50;10.00;;;16.10;78.40;;;;;;4207513;28;20051;-59
2021/10/18 08:55:07;;;;;;;11.30;9.38;;;16.10;78.00;;;;;;4207650;28;20135;-59
2021/10/18 08:57:29;;;;;;;14.43;10.68;;;16.20;77.80;;;;;;4208591;28;20048;-59
2021/10/18 08:59:51;;;;;;;11.30;9.68;;;16.20;77.50;;;;;;4207908;28;20490;-59
2021/10/18 09:02:13;;;;;;;11.40;10.30;;;16.20;77.30;;;;;;4208026;28;20158;-58
2021/10/18 09:04:39;;;;;;;11.45;10.25;;;16.30;77.30;;;;;;4205838;28;20055;-59
2021/10/18 09:07:15;;;;;;;11.82;10.65;;;16.30;77.90;;;;;;4205708;28;20048;-58
2021/10/18 09:09:45;;;;;;;10.75;9.65;;;16.30;77.10;;;;;;4206201;28;20448;-59
2021/10/18 09:12:22;;;;;;;11.80;9.82;;;16.20;76.90;;;;;;4207929;28;20048;-59
2021/10/18 09:14:44;;;;;;;10.80;9.70;;;16.20;77.00;;;;;;4206161;28;20051;-59
2021/10/18 09:17:06;;;;;;;11.95;10.57;;;16.20;77.00;;;;;;4206751;28;20460;-59
2021/10/18 09:19:28;;;;;;;11.15;10.07;;;16.20;77.10;;;;;;4204026;28;20046;-59
2021/10/18 09:21:52;;;;;;;11.82;10.27;;;16.10;77.10;;;;;;4206796;28;20510;-58
2021/10/18 09:24:37;;;;;;;12.98;10.65;;;16.10;77.30;;;;;;4203768;28;20064;-59
2021/10/18 09:27:01;;;;;;;12.65;11.15;;;16.10;77.30;;;;;;4204550;27;20056;-60
2021/10/18 09:29:24;;;;;;;12.52;11.15;;;16.10;77.50;;;;;;4206539;28;20058;-60
2021/10/18 09:32:01;;;;;;;13.23;10.88;;;16.00;77.50;;;;;;4207717;28;20162;-59
2021/10/18 09:34:30;;;;;;;11.40;10.27;;;16.00;77.60;;;;;;4206653;28;20097;-59
2021/10/18 09:36:52;;;;;;;11.50;10.07;;;16.00;77.80;;;;;;4207362;28;20082;-60
2021/10/18 09:39:30;;;;;;;12.15;10.85;;;16.00;78.00;;;;;;4208474;28;20048;-59
2021/10/18 09:42:01;;;;;;;13.32;11.93;;;15.90;78.00;;;;;;4208166;28;20101;-60
2021/10/18 09:44:39;;;;;;;14.43;11.63;;;15.90;78.10;;;;;;4207478;28;20054;-60
2021/10/18 09:47:21;;;;;;;13.77;12.38;;;15.90;78.40;;;;;;4207933;28;20376;-61
2021/10/18 10:52:12;;;;;;;17.77;11.75;;;15.80;79.20;;;;;;4204866;28;20048;-60
2021/10/18 10:54:38;;;;;;;15.00;12.07;;;15.80;79.20;;;;;;4208000;28;20051;-60
2021/10/18 10:57:09;;;;;;;13.77;11.00;;;15.80;79.20;;;;;;4207484;28;20044;-60
2021/10/18 10:59:35;;;;;;;14.65;11.27;;;15.80;79.20;;;;;;4214521;28;20548;-60
2021/10/18 11:02:00;;;;;;;14.63;11.93;;;15.80;79.30;;;;;;4209572;28;20109;-61
2021/10/18 11:04:48;;;;;;;13.05;11.52;;;15.80;79.30;;;;;;4208848;28;20098;-60
2021/10/18 11:07:12;;;;;;;14.60;11.13;;;15.80;79.30;;;;;;4202509;28;20414;-60
2021/10/18 11:09:40;;;;;;;13.27;11.48;;;15.80;79.40;;;;;;4211184;28;20451;-60
2021/10/18 11:12:02;;;;;;;11.65;10.52;;;15.80;79.30;;;;;;4209170;28;20123;-60
2021/10/18 11:14:25;;;;;;;13.20;10.73;;;15.90;79.40;;;;;;4210968;28;20044;-60
2021/10/18 11:16:49;;;;;;;13.32;11.57;;;15.90;79.40;;;;;;4210444;28;20052;-60
2021/10/18 11:19:11;;;;;;;14.63;11.15;;;15.90;79.50;;;;;;4210645;28;20114;-59
2021/10/18 11:21:34;;;;;;;12.02;10.43;;;15.90;79.50;;;;;;4210491;28;20055;-60
2021/10/18 11:24:06;;;;;;;12.73;11.32;;;15.90;79.60;;;;;;4205256;28;20039;-60
2021/10/18 11:26:30;;;;;;;11.98;10.27;;;15.90;79.60;;;;;;4210708;28;20050;-60
2021/10/18 11:28:53;;;;;;;12.52;10.98;;;15.90;79.80;;;;;;4211498;28;20490;-60
2021/10/18 11:31:17;;;;;;;12.85;10.65;;;15.90;79.90;;;;;;4193913;28;20476;-61
2021/10/18 11:33:40;;;;;;;13.73;9.70;;;15.90;79.90;;;;;;4209397;28;20075;-60
2021/10/18 11:36:15;;;;;;;11.05;9.95;;;16.00;79.70;;;;;;4210658;28;20402;-60
2021/10/18 11:38:37;;;;;;;11.68;10.00;;;16.00;79.60;;;;;;4209279;28;20482;-59
2021/10/18 11:41:03;;;;;;;11.57;10.18;;;16.00;79.90;;;;;;4210427;28;20793;-60
2021/10/18 11:43:30;;;;;;;10.98;9.93;;;16.00;79.80;;;;;;4209974;28;20051;-60
2021/10/18 11:45:53;;;;;;;11.90;10.50;;;16.00;79.70;;;;;;4210188;28;20083;-56
2021/10/18 11:48:17;;;;;;;11.07;9.98;;;16.00;79.60;;;;;;4208754;28;20052;-60
2021/10/18 11:50:43;;;;;;;10.20;9.05;;;16.00;79.60;;;;;;4198587;28;20140;-60
2021/10/18 11:53:16;;;;;;;12.50;9.88;;;16.10;80.40;;;;;;4209990;28;20415;-60
2021/10/18 11:55:39;;;;;;;13.10;9.93;;;16.10;79.50;;;;;;4209745;28;20414;-60
2021/10/18 11:58:05;;;;;;;16.73;10.05;;;16.10;79.60;;;;;;4212534;28;20048;-60
2021/10/18 12:00:29;;;;;;;15.23;9.68;;;16.10;80.20;;;;;;4215298;27;20043;-60
2021/10/18 12:02:52;;;;;;;12.40;10.25;;;16.10;80.40;;;;;;4216889;27;20043;-62
2021/10/18 12:05:16;;;;;;;11.57;10.48;;;16.10;80.30;;;;;;4213750;28;20047;-62
2021/10/18 12:07:41;;;;;;;13.45;11.15;;;16.20;80.30;;;;;;4216899;27;20138;-63
2021/10/18 12:10:15;;;;;;;11.75;10.30;;;16.10;80.20;;;;;;4201627;28;20136;-61
2021/10/18 12:12:37;;;;;;;10.70;9.57;;;16.20;80.10;;;;;;4192994;28;20083;-63
2021/10/18 12:15:00;;;;;;;11.05;10.05;;;16.20;80.00;;;;;;4209767;28;20552;-64
2021/10/18 12:17:22;;;;;;;11.88;10.40;;;16.20;80.00;;;;;;4209940;28;20052;-63
2021/10/18 12:19:44;;;;;;;10.82;9.75;;;16.10;79.90;;;;;;4209844;28;20055;-61
2021/10/18 12:22:07;;;;;;;12.85;10.55;;;16.10;79.90;;;;;;4209962;28;20056;-61
2021/10/18 12:24:34;;;;;;;10.32;9.32;;;16.10;80.00;;;;;;4209765;28;20558;-63
2021/10/18 12:26:56;;;;;;;10.98;9.60;;;16.20;79.90;;;;;;4209223;28;20628;-62
2021/10/18 12:29:20;;;;;;;12.30;9.75;;;16.20;79.80;;;;;;4209983;28;20054;-62
2021/10/18 12:31:43;;;;;;;10.52;9.45;;;16.20;79.50;;;;;;4209751;28;20044;-62
2021/10/18 12:34:11;;;;;;;11.23;9.95;;;16.20;79.60;;;;;;4209538;28;20124;-62
2021/10/18 12:36:46;;;;;;;13.30;10.35;;;16.20;79.60;;;;;;4209757;28;20059;-64
2021/10/18 12:39:11;;;;;;;10.98;9.40;;;16.10;80.40;;;;;;4209391;28;20047;-62
2021/10/18 12:41:42;;;;;;;11.10;9.88;;;16.10;79.50;;;;;;4208883;28;20060;-63
2021/10/18 12:44:05;;;;;;;12.02;10.32;;;16.20;79.60;;;;;;4209358;28;20055;-62
2021/10/18 12:46:28;;;;;;;12.73;10.07;;;16.20;80.50;;;;;;4208972;28;20052;-65
2021/10/18 12:48:58;;;;;;;11.18;10.05;;;16.20;79.80;;;;;;4209226;28;20054;-65
2021/10/18 12:51:38;;;;;;;12.82;9.55;;;16.20;79.80;;;;;;4209267;28;20044;-64
2021/10/18 12:54:17;;;;;;;12.38;10.00;;;16.20;79.80;;;;;;4209043;28;20517;-65
2021/10/18 12:56:40;;;;;;;12.38;9.23;;;16.20;79.60;;;;;;4209003;28;20044;-66
2021/10/18 12:59:09;;;;;;;13.02;9.38;;;16.30;79.60;;;;;;4207867;28;20043;-62
2021/10/18 13:01:31;;;;;;;11.45;9.80;;;16.20;79.30;;;;;;4209412;28;20181;-62
2021/10/18 13:03:53;;;;;;;11.32;9.20;;;16.30;79.50;;;;;;4209343;28;20051;-62
2021/10/18 13:06:16;;;;;;;9.77;8.77;;;16.30;79.60;;;;;;4209513;28;20133;-62
2021/10/18 13:08:38;;;;;;;10.38;9.38;;;16.30;79.60;;;;;;4208980;28;20076;-62
2021/10/18 13:11:01;;;;;;;10.95;9.45;;;16.30;79.50;;;;;;4208100;28;20151;-63
2021/10/18 13:13:26;;;;;;;12.57;9.52;;;16.30;79.40;;;;;;4209325;28;20131;-62
2021/10/18 13:15:50;;;;;;;11.48;8.15;;;16.30;79.30;;;;;;4209139;28;20048;-63
2021/10/18 13:18:14;;;;;;;12.23;9.20;;;16.30;79.60;;;;;;4208974;28;20050;-64
2021/10/18 13:20:37;;;;;;;11.15;9.45;;;16.30;79.80;;;;;;4222474;27;20074;-62
2021/10/18 13:23:02;;;;;;;9.50;8.48;;;16.30;79.80;;;;;;4222721;27;20134;-62
2021/10/18 13:25:26;;;;;;;12.13;8.93;;;16.30;79.90;;;;;;4208437;28;20044;-62